createdAt,value
2022-09-11T00:00:53.922Z,101119.66
2022-09-11T00:01:56.886Z,101133.94
2022-09-11T00:02:58.920Z,101118.34
2022-09-11T00:04:03.671Z,101110.50
2022-09-11T00:05:06.338Z,101117.13
2022-09-11T00:06:11.988Z,101120.63
2022-09-11T00:07:14.971Z,101101.41
2022-09-11T00:08:18.768Z,101117.72
2022-09-11T00:09:21.746Z,101116.66
2022-09-11T00:10:24.363Z,101120.41
2022-09-11T00:11:30.347Z,101122.06
2022-09-11T00:12:32.326Z,101121.22
2022-09-11T00:13:35.675Z,101121.00
2022-09-11T00:14:37.651Z,101117.50
2022-09-11T00:15:42.105Z,101125.56
2022-09-11T00:16:47.467Z,101123.69
2022-09-11T00:17:49.662Z,101112.97
2022-09-11T00:18:53.097Z,101125.34
2022-09-11T00:19:55.369Z,101126.97
2022-09-11T00:20:59.192Z,101115.44
2022-09-11T00:22:02.140Z,101123.25
2022-09-11T00:23:05.197Z,101117.06
2022-09-11T00:24:10.212Z,101107.22
2022-09-11T00:25:12.534Z,101123.84
2022-09-11T00:26:16.105Z,101122.81
2022-09-11T00:27:20.904Z,101115.56
2022-09-11T00:28:25.547Z,101113.69
2022-09-11T00:29:29.911Z,101127.16
2022-09-11T00:30:32.167Z,101120.75
2022-09-11T00:31:35.599Z,101123.22
2022-09-11T00:32:37.808Z,101122.38
2022-09-11T00:33:42.419Z,101126.13
2022-09-11T00:34:46.942Z,101119.69
2022-09-11T00:35:56.935Z,101115.94
2022-09-11T00:36:59.023Z,101117.59
2022-09-11T00:38:02.242Z,101118.63
2022-09-11T00:39:04.572Z,101112.44
2022-09-11T00:40:08.975Z,101103.81
2022-09-11T00:41:14.388Z,101109.59
2022-09-11T00:42:17.636Z,101120.75
2022-09-11T00:43:21.732Z,101113.69
2022-09-11T00:45:00.837Z,101117.44
2022-09-11T00:46:05.807Z,101112.50
2022-09-11T00:47:10.699Z,101113.97
2022-09-11T00:48:16.244Z,101139.84
2022-09-11T00:49:24.678Z,101116.06
2022-09-11T00:50:31.062Z,101121.88
2022-09-11T00:51:38.760Z,101120.81
2022-09-11T00:52:52.481Z,101116.72
2022-09-11T00:53:59.412Z,101124.56
2022-09-11T00:55:05.399Z,101118.34
2022-09-11T00:56:09.895Z,101123.75
2022-09-11T00:57:12.621Z,101128.31
2022-09-11T00:58:19.504Z,101117.56
2022-09-11T00:59:26.948Z,101119.41
2022-09-11T01:00:30.202Z,101119.66
2022-09-11T01:01:33.243Z,101132.03
2022-09-11T01:02:39.690Z,101121.28
2022-09-11T01:03:42.391Z,101112.25
2022-09-11T01:04:45.451Z,101125.03
2022-09-11T01:05:48.326Z,101116.94
2022-09-11T01:06:53.701Z,101114.69
2022-09-11T01:07:56.679Z,101125.03
2022-09-11T01:09:00.207Z,101124.19
2022-09-11T01:10:03.346Z,101130.41
2022-09-11T01:11:21.733Z,101119.66
2022-09-11T01:12:32.794Z,101129.56
2022-09-11T01:13:44.915Z,101125.84
2022-09-11T01:14:56.409Z,101123.97
2022-09-11T01:16:08.716Z,101129.56
2022-09-11T01:17:22.635Z,101132.03
2022-09-11T01:18:30.013Z,101134.72
2022-09-11T01:19:48.609Z,101133.69
2022-09-11T01:21:09.842Z,101140.72
2022-09-11T01:22:36.218Z,101136.19
2022-09-11T01:24:05.281Z,101142.34
2022-09-11T01:25:19.370Z,101130.41
2022-09-11T01:26:47.458Z,101136.78
2022-09-11T01:27:53.264Z,101140.28
2022-09-11T01:29:03.504Z,101135.72
2022-09-11T01:30:11.494Z,101137.59
2022-09-11T01:31:20.728Z,101137.59
2022-09-11T01:32:27.971Z,101144.63
2022-09-11T01:33:38.650Z,101141.09
2022-09-11T01:34:48.423Z,101143.56
2022-09-11T01:35:57.757Z,101140.28
2022-09-11T01:37:05.412Z,101139.84
2022-09-11T01:38:14.786Z,101132.44
2022-09-11T01:39:20.238Z,101138.19
2022-09-11T01:40:27.456Z,101141.72
2022-09-11T01:41:34.924Z,101144.41
2022-09-11T01:42:43.312Z,101135.72
2022-09-11T01:43:52.805Z,101137.13
2022-09-11T01:44:58.465Z,101146.88
2022-09-11T01:46:03.267Z,101132.81
2022-09-11T01:47:11.336Z,101137.13
2022-09-11T01:48:19.019Z,101140.66
2022-09-11T01:49:28.264Z,101141.72
2022-09-11T01:50:32.963Z,101139.03
2022-09-11T01:51:39.066Z,101140.66
2022-09-11T01:52:47.937Z,101142.34
2022-09-11T01:53:53.899Z,101147.72
2022-09-11T01:55:01.282Z,101143.13
2022-09-11T01:56:13.200Z,101144.56
2022-09-11T01:57:21.980Z,101143.53
2022-09-11T01:58:30.613Z,101149.75
2022-09-11T01:59:42.400Z,101147.03
2022-09-11T02:00:49.884Z,101150.56
2022-09-11T02:02:05.154Z,101153.84
2022-09-11T02:03:14.289Z,101151.97
2022-09-11T02:04:20.129Z,101155.50
2022-09-11T02:05:27.756Z,101139.81
2022-09-11T02:06:34.789Z,101151.97
2022-09-11T02:07:42.309Z,101148.03
2022-09-11T02:08:50.167Z,101152.38
2022-09-11T02:10:01.352Z,101162.31
2022-09-11T02:11:07.425Z,101157.53
2022-09-11T02:12:16.494Z,101146.97
2022-09-11T02:13:27.240Z,101156.91
2022-09-11T02:14:38.522Z,101155.06
2022-09-11T02:15:43.922Z,101159.59
2022-09-11T02:16:50.764Z,101156.53
2022-09-11T02:17:59.529Z,101157.13
2022-09-11T02:19:06.045Z,101154.44
2022-09-11T02:20:10.191Z,101157.97
2022-09-11T02:21:13.149Z,101160.66
2022-09-11T02:22:16.115Z,101156.13
2022-09-11T02:23:18.457Z,101154.44
2022-09-11T02:24:23.410Z,101157.97
2022-09-11T02:25:25.389Z,101162.53
2022-09-11T02:26:38.675Z,101162.53
2022-09-11T02:27:41.324Z,101164.38
2022-09-11T02:28:44.335Z,101166.28
2022-09-11T02:29:47.784Z,101157.19
2022-09-11T02:30:51.159Z,101165.28
2022-09-11T02:31:55.124Z,101166.09
2022-09-11T02:32:57.057Z,101161.97
2022-09-11T02:34:00.035Z,101170.03
2022-09-11T02:35:02.741Z,101165.72
2022-09-11T02:36:20.915Z,101169.44
2022-09-11T02:37:34.723Z,101161.59
2022-09-11T02:38:48.403Z,101166.97
2022-09-11T02:40:19.505Z,101167.19
2022-09-11T02:41:28.386Z,101163.53
2022-09-11T02:42:42.130Z,101171.16
2022-09-11T02:43:57.734Z,101173.84
2022-09-11T02:45:09.602Z,101174.88
2022-09-11T02:46:34.886Z,101183.78
2022-09-11T02:47:46.931Z,101169.72
2022-09-11T02:49:00.231Z,101179.44
2022-09-11T02:50:09.931Z,101180.47
2022-09-11T02:51:21.858Z,101174.28
2022-09-11T02:52:36.024Z,101176.16
2022-09-11T02:53:48.592Z,101174.47
2022-09-11T02:54:56.447Z,101184.66
2022-09-11T02:56:05.588Z,101185.25
2022-09-11T02:57:19.225Z,101175.53
2022-09-11T02:58:27.869Z,101180.91
2022-09-11T02:59:34.078Z,101177.41
2022-09-11T03:00:40.521Z,101182.56
2022-09-11T03:01:50.251Z,101187.94
2022-09-11T03:02:54.360Z,101182.38
2022-09-11T03:03:56.707Z,101187.53
2022-09-11T03:04:59.718Z,101186.47
2022-09-11T03:06:01.756Z,101187.31
2022-09-11T03:07:05.452Z,101188.09
2022-09-11T03:08:07.744Z,101181.91
2022-09-11T03:09:10.782Z,101185.63
2022-09-11T03:10:13.162Z,101185.22
2022-09-11T03:11:17.684Z,101177.78
2022-09-11T03:12:21.126Z,101186.84
2022-09-11T03:13:26.426Z,101183.13
2022-09-11T03:14:28.424Z,101156.97
2022-09-11T03:15:31.415Z,101192.41
2022-09-11T03:16:33.437Z,101188.88
2022-09-11T03:17:37.748Z,101186.81
2022-09-11T03:18:39.940Z,101188.44
2022-09-11T03:19:44.263Z,101185.75
2022-09-11T03:20:47.013Z,101185.75
2022-09-11T03:21:51.028Z,101181.19
2022-09-11T03:22:53.062Z,101181.19
2022-09-11T03:23:57.417Z,101191.13
2022-09-11T03:24:59.430Z,101178.56
2022-09-11T03:26:06.486Z,101193.81
2022-09-11T03:27:09.440Z,101191.13
2022-09-11T03:28:12.563Z,101191.97
2022-09-11T03:29:14.719Z,101184.94
2022-09-11T03:30:19.181Z,101189.28
2022-09-11T03:31:23.984Z,101191.13
2022-09-11T03:32:26.923Z,101187.41
2022-09-11T03:33:32.348Z,101182.03
2022-09-11T03:34:35.296Z,101196.31
2022-09-11T03:35:37.436Z,101190.09
2022-09-11T03:36:40.761Z,101160.66
2022-09-11T03:37:42.788Z,101187.63
2022-09-11T03:38:46.484Z,101192.81
2022-09-11T03:39:50.278Z,101192.81
2022-09-11T03:40:55.049Z,101198.19
2022-09-11T03:41:58.349Z,101201.72
2022-09-11T03:43:02.808Z,101199.00
2022-09-11T03:44:04.954Z,101208.94
2022-09-11T03:45:08.542Z,101200.03
2022-09-11T03:46:10.718Z,101197.56
2022-09-11T03:47:13.909Z,101199.81
2022-09-11T03:48:15.939Z,101211.41
2022-09-11T03:49:20.446Z,101204.19
2022-09-11T03:50:22.453Z,101199.59
2022-09-11T03:51:26.337Z,101204.97
2022-09-11T03:52:30.330Z,101210.03
2022-09-11T03:53:34.198Z,101197.75
2022-09-11T03:54:36.284Z,101206.44
2022-09-11T03:55:39.860Z,101204.75
2022-09-11T03:56:43.075Z,101209.13
2022-09-11T03:57:46.154Z,101206.44
2022-09-11T03:58:48.638Z,101207.25
2022-09-11T03:59:51.708Z,101207.03
2022-09-11T04:00:53.728Z,101208.91
2022-09-11T04:01:56.806Z,101215.13
2022-09-11T04:02:59.348Z,101205.38
2022-09-11T04:04:11.882Z,101201.25
2022-09-11T04:05:18.879Z,101208.06
2022-09-11T04:06:22.160Z,101207.66
2022-09-11T04:07:24.976Z,101209.94
2022-09-11T04:08:33.468Z,101206.44
2022-09-11T04:09:37.096Z,101205.59
2022-09-11T04:10:40.777Z,101211.81
2022-09-11T04:11:44.205Z,101197.53
2022-09-11T04:12:55.859Z,101206.66
2022-09-11T04:13:59.761Z,101200.44
2022-09-11T04:15:03.673Z,101173.69
2022-09-11T04:16:09.618Z,101201.50
2022-09-11T04:17:13.252Z,101200.88
2022-09-11T04:18:16.232Z,101201.72
2022-09-11T04:19:18.853Z,101203.56
2022-09-11T04:20:23.243Z,101210.59
2022-09-11T04:21:25.328Z,101196.16
2022-09-11T04:22:31.232Z,101207.91
2022-09-11T04:23:34.505Z,101179.69
2022-09-11T04:24:37.975Z,101212.25
2022-09-11T04:25:40.038Z,101208.94
2022-09-11T04:26:43.361Z,101214.34
2022-09-11T04:27:57.994Z,101207.28
2022-09-11T04:29:01.342Z,101218.06
2022-09-11T04:30:05.342Z,101206.69
2022-09-11T04:31:08.374Z,101208.34
2022-09-11T04:32:11.658Z,101219.09
2022-09-11T04:33:15.634Z,101217.25
2022-09-11T04:34:17.942Z,101225.31
2022-09-11T04:35:20.846Z,101225.53
2022-09-11T04:36:30.057Z,101228.22
2022-09-11T04:37:35.526Z,101231.72
2022-09-11T04:38:39.066Z,101218.50
2022-09-11T04:39:42.136Z,101219.31
2022-09-11T04:40:44.465Z,101227.41
2022-09-11T04:41:48.317Z,101226.56
2022-09-11T04:42:51.340Z,101233.84
2022-09-11T04:43:59.116Z,101221.41
2022-09-11T04:45:05.138Z,101231.16
2022-09-11T04:46:12.840Z,101226.56
2022-09-11T04:47:16.119Z,101230.94
2022-09-11T04:48:19.325Z,101231.16
2022-09-11T04:49:21.721Z,101233.63
2022-09-11T04:50:24.657Z,101233.63
2022-09-11T04:51:47.339Z,101231.94
2022-09-11T04:52:52.064Z,101239.00
2022-09-11T04:53:57.510Z,101234.63
2022-09-11T04:55:02.839Z,101232.56
2022-09-11T04:56:09.646Z,101243.31
2022-09-11T04:57:17.044Z,101243.31
2022-09-11T04:58:20.199Z,101238.78
2022-09-11T04:59:23.846Z,101237.94
2022-09-11T05:00:32.315Z,101244.97
2022-09-11T05:01:34.382Z,101245.78
2022-09-11T05:02:37.470Z,101244.78
2022-09-11T05:03:40.339Z,101248.28
2022-09-11T05:04:43.386Z,101248.28
2022-09-11T05:05:45.360Z,101242.88
2022-09-11T05:06:49.719Z,101249.94
2022-09-11T05:07:52.718Z,101249.31
2022-09-11T05:08:56.192Z,101254.72
2022-09-11T05:09:58.259Z,101259.25
2022-09-11T05:11:01.279Z,101262.38
2022-09-11T05:12:03.339Z,101264.84
2022-09-11T05:13:09.171Z,101261.56
2022-09-11T05:14:12.622Z,101264.03
2022-09-11T05:15:17.588Z,101259.47
2022-09-11T05:16:19.653Z,101261.94
2022-09-11T05:17:22.694Z,101266.50
2022-09-11T05:18:24.650Z,101262.78
2022-09-11T05:19:27.674Z,101266.09
2022-09-11T05:20:31.002Z,101270.41
2022-09-11T05:21:34.393Z,101261.13
2022-09-11T05:22:37.765Z,101273.72
2022-09-11T05:23:41.292Z,101277.03
2022-09-11T05:24:43.348Z,101268.94
2022-09-11T05:25:47.206Z,101270.59
2022-09-11T05:26:49.223Z,101269.53
2022-09-11T05:27:52.895Z,101272.22
2022-09-11T05:28:55.394Z,101273.91
2022-09-11T05:29:58.384Z,101280.91
2022-09-11T05:31:00.602Z,101278.00
2022-09-11T05:32:04.074Z,101277.19
2022-09-11T05:33:06.728Z,101284.44
2022-09-11T05:34:09.711Z,101282.59
2022-09-11T05:35:12.060Z,101279.06
2022-09-11T05:36:16.758Z,101280.69
2022-09-11T05:37:19.196Z,101276.13
2022-09-11T05:38:26.539Z,101281.53
2022-09-11T05:39:28.958Z,101276.97
2022-09-11T05:40:32.679Z,101281.31
2022-09-11T05:41:34.720Z,101284.63
2022-09-11T05:42:38.675Z,101283.78
2022-09-11T05:43:41.631Z,101282.75
2022-09-11T05:44:47.266Z,101286.03
2022-09-11T05:45:54.827Z,101302.78
2022-09-11T05:46:58.482Z,101294.72
2022-09-11T05:48:00.606Z,101288.31
2022-09-11T05:49:03.672Z,101288.91
2022-09-11T05:50:07.313Z,101288.91
2022-09-11T05:51:12.923Z,101292.41
2022-09-11T05:52:15.002Z,101295.94
2022-09-11T05:53:18.471Z,101291.97
2022-09-11T05:54:22.815Z,101290.13
2022-09-11T05:55:25.768Z,101289.91
2022-09-11T05:56:29.231Z,101292.38
2022-09-11T05:57:34.795Z,101295.91
2022-09-11T05:58:38.777Z,101290.50
2022-09-11T05:59:41.792Z,101297.53
2022-09-11T06:00:46.618Z,101296.50
2022-09-11T06:01:48.654Z,101296.50
2022-09-11T06:02:58.294Z,101296.50
2022-09-11T06:04:03.488Z,101295.44
2022-09-11T06:05:07.088Z,101293.59
2022-09-11T06:06:10.471Z,101294.44
2022-09-11T06:07:13.719Z,101301.44
2022-09-11T06:08:17.688Z,101302.88
2022-09-11T06:09:22.041Z,101301.84
2022-09-11T06:10:24.219Z,101310.53
2022-09-11T06:11:27.232Z,101309.25
2022-09-11T06:12:29.441Z,101309.03
2022-09-11T06:13:36.220Z,101303.03
2022-09-11T06:14:39.257Z,101303.19
2022-09-11T06:15:46.933Z,101314.59
2022-09-11T06:16:50.880Z,101316.25
2022-09-11T06:17:53.504Z,101309.59
2022-09-11T06:18:56.671Z,101312.06
2022-09-11T06:20:00.999Z,101317.22
2022-09-11T06:21:07.110Z,101314.31
2022-09-11T06:22:15.721Z,101320.53
2022-09-11T06:23:20.478Z,101316.19
2022-09-11T06:24:25.181Z,101317.00
2022-09-11T06:25:27.155Z,101314.13
2022-09-11T06:26:30.487Z,101313.06
2022-09-11T06:27:32.417Z,101318.44
2022-09-11T06:28:36.298Z,101313.88
2022-09-11T06:29:38.438Z,101318.84
2022-09-11T06:30:41.696Z,101324.84
2022-09-11T06:31:47.706Z,101316.75
2022-09-11T06:32:51.842Z,101327.31
2022-09-11T06:33:57.087Z,101332.69
2022-09-11T06:34:59.415Z,101328.09
2022-09-11T06:36:04.681Z,101331.03
2022-09-11T06:37:06.672Z,101333.94
2022-09-11T06:38:09.757Z,101337.91
2022-09-11T06:39:11.809Z,101335.22
2022-09-11T06:40:18.369Z,101342.25
2022-09-11T06:41:20.978Z,101337.09
2022-09-11T06:42:23.948Z,101344.09
2022-09-11T06:43:28.121Z,101335.22
2022-09-11T06:44:31.226Z,101331.69
2022-09-11T06:45:35.563Z,101340.84
2022-09-11T06:46:40.185Z,101340.84
2022-09-11T06:47:44.817Z,101341.06
2022-09-11T06:48:50.179Z,101347.47
2022-09-11T06:49:57.385Z,101339.59
2022-09-11T06:51:27.086Z,101361.16
2022-09-11T06:52:29.064Z,101348.53
2022-09-11T06:53:44.917Z,101353.09
2022-09-11T06:54:47.655Z,101344.78
2022-09-11T06:55:53.557Z,101347.47
2022-09-11T06:56:55.885Z,101344.56
2022-09-11T06:57:58.867Z,101339.16
2022-09-11T06:59:04.090Z,101333.16
2022-09-11T07:00:09.168Z,101341.47
2022-09-11T07:01:17.514Z,101337.13
2022-09-11T07:02:21.129Z,101298.97
2022-09-11T07:03:24.288Z,101332.19
2022-09-11T07:04:28.630Z,101329.50
2022-09-11T07:05:31.091Z,101330.75
2022-09-11T07:06:38.453Z,101333.59
2022-09-11T07:07:41.280Z,101332.38
2022-09-11T07:08:45.143Z,101334.00
2022-09-11T07:09:47.123Z,101339.78
2022-09-11T07:10:50.354Z,101335.84
2022-09-11T07:11:53.906Z,101343.69
2022-09-11T07:12:57.989Z,101354.88
2022-09-11T07:14:01.419Z,101352.53
2022-09-11T07:15:04.488Z,101338.41
2022-09-11T07:16:12.574Z,101337.97
2022-09-11T07:17:16.776Z,101337.31
2022-09-11T07:18:22.729Z,101342.06
2022-09-11T07:19:26.208Z,101335.41
2022-09-11T07:20:28.359Z,101351.97
2022-09-11T07:21:31.873Z,101349.66
2022-09-11T07:22:37.010Z,101342.78
2022-09-11T07:23:40.772Z,101348.75
2022-09-11T07:24:42.799Z,101342.09
2022-09-11T07:25:46.002Z,101345.19
2022-09-11T07:26:48.243Z,101344.72
2022-09-11T07:28:05.044Z,101349.66
2022-09-11T07:29:07.030Z,101313.53
2022-09-11T07:30:12.082Z,101348.97
2022-09-11T07:31:21.117Z,101353.72
2022-09-11T07:32:23.620Z,101349.97
2022-09-11T07:33:28.852Z,101351.19
2022-09-11T07:34:36.283Z,101350.72
2022-09-11T07:35:41.929Z,101345.94
2022-09-11T07:36:45.736Z,101353.81
2022-09-11T07:37:50.847Z,101348.41
2022-09-11T07:38:55.936Z,101351.94
2022-09-11T07:40:03.006Z,101353.59
2022-09-11T07:41:06.964Z,101358.16
2022-09-11T07:42:08.893Z,101354.03
2022-09-11T07:43:15.289Z,101362.34
2022-09-11T07:44:18.453Z,101359.88
2022-09-11T07:45:22.894Z,101310.56
2022-09-11T07:46:26.864Z,101362.59
2022-09-11T07:47:29.940Z,101362.59
2022-09-11T07:48:34.062Z,101363.63
2022-09-11T07:49:36.065Z,101365.28
2022-09-11T07:50:40.154Z,101365.28
2022-09-11T07:51:42.468Z,101376.06
2022-09-11T07:52:47.147Z,101363.63
2022-09-11T07:53:51.911Z,101373.94
2022-09-11T07:54:55.661Z,101378.09
2022-09-11T07:56:03.524Z,101365.22
2022-09-11T07:57:07.188Z,101373.69
2022-09-11T07:58:09.807Z,101367.22
2022-09-11T07:59:14.591Z,101375.47
2022-09-11T08:00:19.152Z,101374.41
2022-09-11T08:01:27.353Z,101370.22
2022-09-11T08:02:29.951Z,101376.00
2022-09-11T08:03:33.351Z,101379.06
2022-09-11T08:04:35.583Z,101377.78
2022-09-11T08:05:38.628Z,101376.75
2022-09-11T08:06:41.057Z,101386.88
2022-09-11T08:07:49.809Z,101384.78
2022-09-11T08:08:53.718Z,101388.50
2022-09-11T08:10:23.367Z,101383.09
2022-09-11T08:11:20.927Z,101392.25
2022-09-11T08:12:23.906Z,101394.34
2022-09-11T08:13:25.833Z,101384.63
2022-09-11T08:14:31.189Z,101390.03
2022-09-11T08:15:47.291Z,101384.63
2022-09-11T08:16:49.406Z,101401.03
2022-09-11T08:17:54.371Z,101393.19
2022-09-11T08:18:58.080Z,101387.78
2022-09-11T08:20:01.061Z,101391.50
2022-09-11T08:21:04.244Z,101385.28
2022-09-11T08:22:07.239Z,101383.41
2022-09-11T08:23:15.329Z,101385.06
2022-09-11T08:24:20.118Z,101395.03
2022-09-11T08:25:24.003Z,101406.44
2022-09-11T08:26:30.196Z,101394.34
2022-09-11T08:27:33.621Z,101390.81
2022-09-11T08:28:38.701Z,101407.03
2022-09-11T08:29:42.268Z,101405.16
2022-09-11T08:30:45.902Z,101403.50
2022-09-11T08:31:47.879Z,101408.91
2022-09-11T08:32:52.099Z,101416.78
2022-09-11T08:33:54.657Z,101406.81
2022-09-11T08:34:58.505Z,101407.41
2022-09-11T08:36:02.417Z,101412.78
2022-09-11T08:37:05.766Z,101416.09
2022-09-11T08:38:09.776Z,101412.94
2022-09-11T08:39:12.762Z,101411.69
2022-09-11T08:40:21.379Z,101405.81
2022-09-11T08:41:36.209Z,101405.38
2022-09-11T08:42:41.636Z,101405.75
2022-09-11T08:43:50.866Z,101408.22
2022-09-11T08:44:57.508Z,101413.19
2022-09-11T08:46:16.991Z,101410.28
2022-09-11T08:47:24.371Z,101411.31
2022-09-11T08:48:33.357Z,101410.84
2022-09-11T08:49:40.402Z,101422.28
2022-09-11T08:50:43.609Z,101407.13
2022-09-11T08:51:50.043Z,101417.47
2022-09-11T08:52:54.153Z,101414.31
2022-09-11T08:54:02.375Z,101416.31
2022-09-11T08:55:06.343Z,101412.97
2022-09-11T08:56:15.496Z,101416.25
2022-09-11T08:57:24.273Z,101418.50
2022-09-11T08:58:33.598Z,101420.13
2022-09-11T08:59:54.843Z,101416.25
2022-09-11T09:01:08.209Z,101420.38
2022-09-11T09:02:24.256Z,101416.41
2022-09-11T09:03:49.575Z,101416.97
2022-09-11T09:05:09.889Z,101414.28
2022-09-11T09:06:32.471Z,101416.09
2022-09-11T09:07:48.462Z,101424.09
2022-09-11T09:08:58.987Z,101416.72
2022-09-11T09:10:04.328Z,101418.88
2022-09-11T09:11:20.509Z,101429.09
2022-09-11T09:12:32.397Z,101421.84
2022-09-11T09:13:58.173Z,101423.53
2022-09-11T09:15:28.672Z,101419.00
2022-09-11T09:16:45.360Z,101424.66
2022-09-11T09:17:59.664Z,101426.66
2022-09-11T09:19:10.095Z,101423.13
2022-09-11T09:20:17.815Z,101421.69
2022-09-11T09:21:28.043Z,101429.50
2022-09-11T09:22:39.296Z,101420.78
2022-09-11T09:23:45.994Z,101425.00
2022-09-11T09:24:50.084Z,101423.59
2022-09-11T09:25:55.847Z,101424.88
2022-09-11T09:26:57.943Z,101419.91
2022-09-11T09:28:05.377Z,101422.00
2022-09-11T09:29:13.376Z,101427.66
2022-09-11T09:30:19.195Z,101429.28
2022-09-11T09:31:25.747Z,101428.00
2022-09-11T09:32:33.093Z,101420.06
2022-09-11T09:33:43.351Z,101421.25
2022-09-11T09:34:47.059Z,101424.88
2022-09-11T09:35:51.100Z,101425.25
2022-09-11T09:37:04.378Z,101429.38
2022-09-11T09:38:12.858Z,101428.66
2022-09-11T09:39:17.020Z,101431.72
2022-09-11T09:40:20.305Z,101422.41
2022-09-11T09:41:52.632Z,101421.03
2022-09-11T09:43:26.319Z,101417.72
2022-09-11T09:44:47.622Z,101424.91
2022-09-11T09:46:09.883Z,101418.66
2022-09-11T09:47:27.659Z,101399.50
2022-09-11T09:48:41.520Z,101423.84
2022-09-11T09:49:45.799Z,101437.25
2022-09-11T09:51:04.049Z,101414.91
2022-09-11T09:52:21.684Z,101412.56
2022-09-11T09:53:42.668Z,101416.09
2022-09-11T09:54:54.620Z,101423.00
2022-09-11T09:55:59.121Z,101415.59
2022-09-11T09:57:05.777Z,101423.34
2022-09-11T09:58:07.737Z,101422.53
2022-09-11T09:59:18.125Z,101426.84
2022-09-11T10:00:20.887Z,101427.69
2022-09-11T10:01:47.786Z,101424.81
2022-09-11T10:02:54.879Z,101416.88
2022-09-11T10:04:11.357Z,101420.53
2022-09-11T10:05:21.013Z,101424.63
2022-09-11T10:06:23.825Z,101428.41
2022-09-11T10:07:27.227Z,101432.19
2022-09-11T10:08:34.353Z,101433.47
2022-09-11T10:09:38.135Z,101443.50
2022-09-11T10:10:42.953Z,101451.06
2022-09-11T10:11:46.714Z,101442.94
2022-09-11T10:12:48.902Z,101442.94
2022-09-11T10:13:57.232Z,101444.09
2022-09-11T10:15:01.385Z,101434.41
2022-09-11T10:16:06.792Z,101438.84
2022-09-11T10:17:20.392Z,101441.19
2022-09-11T10:18:25.139Z,101437.03
2022-09-11T10:19:40.823Z,101430.63
2022-09-11T10:20:44.521Z,101430.69
2022-09-11T10:21:46.572Z,101436.72
2022-09-11T10:22:49.868Z,101437.28
2022-09-11T10:23:55.466Z,101436.22
2022-09-11T10:25:17.059Z,101432.47
2022-09-11T10:26:23.342Z,101438.47
2022-09-11T10:27:28.848Z,101441.72
2022-09-11T10:28:34.504Z,101437.50
2022-09-11T10:29:36.630Z,101425.13
2022-09-11T10:30:41.779Z,101419.19
2022-09-11T10:31:52.210Z,101425.75
2022-09-11T10:32:58.073Z,101429.63
2022-09-11T10:34:06.126Z,101429.72
2022-09-11T10:35:10.900Z,101433.59
2022-09-11T10:36:13.978Z,101429.06
2022-09-11T10:37:26.020Z,101428.34
2022-09-11T10:38:32.320Z,101425.13
2022-09-11T10:39:37.482Z,101421.31
2022-09-11T10:40:41.302Z,101422.47
2022-09-11T10:41:50.915Z,101420.34
2022-09-11T10:42:54.774Z,101415.97
2022-09-11T10:44:01.583Z,101423.31
2022-09-11T10:45:10.437Z,101413.75
2022-09-11T10:46:25.649Z,101423.44
2022-09-11T10:47:29.855Z,101421.81
2022-09-11T10:48:32.639Z,101422.66
2022-09-11T10:49:36.198Z,101420.75
2022-09-11T10:50:39.513Z,101419.19
2022-09-11T10:52:00.249Z,101423.06
2022-09-11T10:53:21.548Z,101429.13
2022-09-11T10:54:37.403Z,101427.88
2022-09-11T10:55:45.099Z,101429.94
2022-09-11T10:57:08.845Z,101425.22
2022-09-11T10:58:14.907Z,101420.78
2022-09-11T10:59:22.466Z,101427.09
2022-09-11T11:00:27.149Z,101423.91
2022-09-11T11:01:29.114Z,101422.81
2022-09-11T11:02:34.697Z,101426.59
2022-09-11T11:03:36.825Z,101419.78
2022-09-11T11:04:39.842Z,101427.09
2022-09-11T11:05:54.358Z,101421.44
2022-09-11T11:07:09.929Z,101428.75
2022-09-11T11:08:27.460Z,101416.78
2022-09-11T11:09:57.133Z,101420.59
2022-09-11T11:11:18.060Z,101420.03
2022-09-11T11:12:40.514Z,101425.38
2022-09-11T11:14:07.229Z,101417.16
2022-09-11T11:15:30.093Z,101421.41
2022-09-11T11:16:45.649Z,101425.72
2022-09-11T11:18:00.523Z,101428.38
2022-09-11T11:19:24.411Z,101417.69
2022-09-11T11:20:38.307Z,101440.06
2022-09-11T11:21:57.840Z,101431.53
2022-09-11T11:23:43.141Z,101416.56
2022-09-11T11:24:57.121Z,101432.75
2022-09-11T11:26:14.727Z,101429.63
2022-09-11T11:27:37.332Z,101434.38
2022-09-11T11:29:08.957Z,101422.88
2022-09-11T11:30:19.129Z,101425.72
2022-09-11T11:31:40.321Z,101429.25
2022-09-11T11:33:15.009Z,101434.19
2022-09-11T11:34:38.332Z,101424.88
2022-09-11T11:35:45.859Z,101426.09
2022-09-11T11:36:56.287Z,101429.47
2022-09-11T11:38:07.278Z,101427.16
2022-09-11T11:39:19.443Z,101425.94
2022-09-11T11:40:32.320Z,101424.78
2022-09-11T11:41:44.874Z,101430.69
2022-09-11T11:42:56.026Z,101443.31
2022-09-11T11:44:02.716Z,101420.94
2022-09-11T11:45:11.604Z,101427.84
2022-09-11T11:46:18.106Z,101419.78
2022-09-11T11:47:31.134Z,101430.44
2022-09-11T11:48:41.260Z,101427.28
2022-09-11T11:49:59.049Z,101434.72
2022-09-11T11:51:07.364Z,101430.97
2022-09-11T11:52:23.381Z,101430.22
2022-09-11T11:53:31.420Z,101434.06
2022-09-11T11:54:39.886Z,101431.41
2022-09-11T11:55:51.960Z,101437.41
2022-09-11T11:57:00.100Z,101432.03
2022-09-11T11:58:13.475Z,101455.16
2022-09-11T11:59:20.826Z,101433.41
2022-09-11T12:00:23.817Z,101434.50
2022-09-11T12:02:41.245Z,101439.94
2022-09-11T12:03:50.377Z,101441.03
2022-09-11T12:04:59.443Z,101441.81
2022-09-11T12:06:03.002Z,101439.09
2022-09-11T12:07:05.635Z,101433.66
2022-09-11T12:08:16.933Z,101439.69
2022-09-11T12:09:19.235Z,101432.59
2022-09-11T12:10:28.081Z,101449.50
2022-09-11T12:11:35.163Z,101440.50
2022-09-11T12:12:48.699Z,101429.06
2022-09-11T12:13:55.039Z,101435.84
2022-09-11T12:15:03.859Z,101434.97
2022-09-11T12:16:15.205Z,101447.66
2022-09-11T12:17:19.746Z,101440.53
2022-09-11T12:18:25.868Z,101443.72
2022-09-11T12:19:27.849Z,101436.66
2022-09-11T12:20:41.612Z,101441.25
2022-09-11T12:22:06.690Z,101447.34
2022-09-11T12:23:36.053Z,101430.56
2022-09-11T12:24:55.151Z,101432.09
2022-09-11T12:26:18.307Z,101430.06
2022-09-11T12:28:10.640Z,101435.44
2022-09-11T12:29:50.037Z,101429.41
2022-09-11T12:30:58.663Z,101435.56
2022-09-11T12:32:40.779Z,101435.94
2022-09-11T12:33:57.688Z,101441.72
2022-09-11T12:35:13.394Z,101441.19
2022-09-11T12:36:18.631Z,101431.94
2022-09-11T12:37:26.826Z,101432.78
2022-09-11T12:38:38.823Z,101446.91
2022-09-11T12:39:51.659Z,101429.63
2022-09-11T12:40:58.525Z,101436.44
2022-09-11T12:42:39.709Z,101438.44
2022-09-11T12:43:49.082Z,101438.81
2022-09-11T12:44:59.643Z,101433.78
2022-09-11T12:46:02.163Z,101429.28
2022-09-11T12:47:13.576Z,101439.22
2022-09-11T12:48:20.230Z,101427.19
2022-09-11T12:49:24.015Z,101438.50
2022-09-11T12:50:29.425Z,101436.22